createdAt,value
2018-04-14T00:00:16.106Z,42.90
2018-04-14T00:02:42.838Z,42.90
2018-04-14T00:05:09.557Z,43.10
2018-04-14T00:07:36.324Z,43.10
2018-04-14T00:10:03.088Z,43.40
2018-04-14T00:12:29.913Z,43.20
2018-04-14T00:14:56.482Z,43.10
2018-04-14T00:17:23.122Z,43.10
2018-04-14T00:19:51.480Z,43.30
2018-04-14T00:22:18.362Z,43.20
2018-04-14T00:24:45.714Z,43.30
2018-04-14T00:27:12.262Z,43.10
2018-04-14T00:29:39.699Z,42.40
2018-04-14T00:32:06.334Z,42.90
2018-04-14T00:34:39.863Z,42.90
2018-04-14T00:37:06.589Z,43.00
2018-04-14T00:39:33.325Z,43.00
2018-04-14T00:41:59.894Z,42.90
2018-04-14T00:44:26.893Z,43.10
2018-04-14T00:46:53.562Z,42.90
2018-04-14T00:49:20.126Z,42.90
2018-04-14T00:51:46.968Z,43.10
2018-04-14T00:54:14.062Z,43.00
2018-04-14T00:56:40.865Z,43.20
2018-04-14T00:59:07.526Z,43.30
2018-04-14T01:01:34.164Z,43.10
2018-04-14T01:04:01.608Z,43.00
2018-04-14T01:06:28.381Z,43.00
2018-04-14T01:08:55.809Z,42.90
2018-04-14T01:11:22.385Z,43.00
2018-04-14T01:13:49.811Z,43.10
2018-04-14T01:16:16.592Z,43.10
2018-04-14T01:18:43.302Z,43.20
2018-04-14T01:21:10.055Z,42.60
2018-04-14T01:23:36.795Z,43.20
2018-04-14T01:26:03.549Z,43.50
2018-04-14T01:28:30.126Z,43.40
2018-04-14T01:30:57.618Z,43.60
2018-04-14T01:33:24.193Z,43.50
2018-04-14T01:35:50.929Z,43.40
2018-04-14T01:38:17.593Z,43.50
2018-04-14T01:40:44.428Z,43.50
2018-04-14T01:43:11.135Z,43.50
2018-04-14T01:45:37.828Z,43.50
2018-04-14T01:48:04.634Z,43.70
2018-04-14T01:50:32.103Z,43.70
2018-04-14T01:52:59.421Z,43.70
2018-04-14T01:55:26.030Z,43.90
2018-04-14T01:57:52.754Z,43.90
2018-04-14T02:00:19.413Z,43.70
2018-04-14T02:02:46.153Z,43.60
2018-04-14T02:05:12.808Z,43.90
2018-04-14T02:07:39.481Z,43.50
2018-04-14T02:10:06.056Z,43.80
2018-04-14T02:12:32.839Z,43.80
2018-04-14T02:14:59.481Z,44.00
2018-04-14T02:17:26.129Z,43.90
2018-04-14T02:19:52.701Z,44.10
2018-04-14T02:22:19.389Z,44.40
2018-04-14T02:24:46.054Z,45.00
2018-04-14T02:27:12.809Z,44.20
2018-04-14T02:29:39.481Z,44.20
2018-04-14T02:32:06.791Z,44.70
2018-04-14T02:34:33.550Z,44.30
2018-04-14T02:37:00.160Z,44.50
2018-04-14T02:39:26.843Z,44.80
2018-04-14T02:41:53.589Z,44.40
2018-04-14T02:44:20.154Z,45.00
2018-04-14T02:46:46.867Z,45.10
2018-04-14T02:49:20.542Z,45.00
2018-04-14T02:51:47.314Z,45.10
2018-04-14T02:54:14.079Z,45.00
2018-04-14T02:56:40.733Z,44.80
2018-04-14T02:59:07.356Z,44.90
2018-04-14T03:01:34.097Z,45.00
2018-04-14T03:04:00.737Z,45.30
2018-04-14T03:06:27.378Z,45.50
2018-04-14T03:08:54.236Z,45.70
2018-04-14T03:11:21.083Z,45.70
2018-04-14T03:13:47.829Z,45.90
2018-04-14T03:16:14.574Z,46.00
2018-04-14T03:18:41.316Z,45.60
2018-04-14T03:21:08.063Z,46.10
2018-04-14T03:23:34.707Z,45.90
2018-04-14T03:26:01.280Z,46.10
2018-04-14T03:28:27.893Z,46.10
2018-04-14T03:30:54.531Z,46.10
2018-04-14T03:33:21.206Z,46.20
2018-04-14T03:35:47.922Z,46.00
2018-04-14T03:38:15.522Z,45.90
2018-04-14T03:40:42.169Z,46.40
2018-04-14T03:43:09.696Z,46.00
2018-04-14T03:45:36.264Z,46.10
2018-04-14T03:48:02.846Z,46.20
2018-04-14T03:50:29.620Z,46.20
2018-04-14T03:52:56.166Z,46.20
2018-04-14T03:55:22.811Z,46.80
2018-04-14T03:57:50.112Z,46.80
2018-04-14T04:00:17.447Z,46.90
2018-04-14T04:02:44.173Z,46.90
2018-04-14T04:05:10.922Z,46.80
2018-04-14T04:07:37.428Z,46.90
2018-04-14T04:10:05.133Z,47.70
2018-04-14T04:12:31.870Z,46.80
2018-04-14T04:14:58.556Z,47.30
2018-04-14T04:17:25.958Z,47.10
2018-04-14T04:20:04.963Z,47.00
2018-04-14T04:22:44.711Z,47.00
2018-04-14T04:25:33.413Z,47.20
2018-04-14T04:28:00.171Z,47.20
2018-04-14T04:30:28.642Z,46.90
2018-04-14T04:32:55.325Z,46.90
2018-04-14T04:35:22.014Z,47.60
2018-04-14T04:37:48.697Z,47.00
2018-04-14T04:40:16.043Z,47.50
2018-04-14T04:42:42.648Z,47.60
2018-04-14T04:45:09.398Z,47.20
2018-04-14T04:47:35.981Z,47.60
2018-04-14T04:50:03.405Z,47.70
2018-04-14T04:52:30.179Z,48.00
2018-04-14T04:54:57.006Z,48.00
2018-04-14T04:57:23.792Z,48.60
2018-04-14T04:59:51.201Z,48.20
2018-04-14T05:02:17.899Z,47.90
2018-04-14T05:04:44.698Z,47.90
2018-04-14T05:07:11.340Z,47.70
2018-04-14T05:09:38.107Z,47.80
2018-04-14T05:12:04.789Z,47.70
2018-04-14T05:14:31.688Z,47.40
2018-04-14T05:16:58.421Z,47.90
2018-04-14T05:19:25.165Z,47.60
2018-04-14T05:21:51.811Z,48.00
2018-04-14T05:24:18.510Z,47.80
2018-04-14T05:26:45.837Z,48.20
2018-04-14T05:29:12.509Z,48.10
2018-04-14T05:31:39.962Z,48.20
2018-04-14T05:34:06.796Z,48.10
2018-04-14T05:36:33.620Z,48.50
2018-04-14T05:39:00.361Z,47.60
2018-04-14T05:41:27.004Z,46.60
2018-04-14T05:43:53.656Z,44.90
2018-04-14T05:46:20.393Z,43.60
2018-04-14T05:48:46.947Z,42.20
2018-04-14T05:51:13.687Z,40.50
2018-04-14T05:53:40.430Z,39.60
2018-04-14T05:56:07.047Z,38.50
2018-04-14T05:58:33.721Z,38.20
2018-04-14T06:01:00.382Z,37.50
2018-04-14T06:03:27.021Z,36.80
2018-04-14T06:05:53.609Z,36.50
2018-04-14T06:08:20.386Z,36.30
2018-04-14T06:10:47.138Z,36.50
2018-04-14T06:13:13.810Z,36.80
2018-04-14T06:15:40.411Z,36.70
2018-04-14T06:18:07.189Z,36.80
2018-04-14T06:20:33.916Z,37.10
2018-04-14T06:23:00.590Z,36.00
2018-04-14T06:25:27.407Z,37.80
2018-04-14T06:27:53.967Z,39.60
2018-04-14T06:30:20.910Z,39.30
2018-04-14T06:32:47.857Z,39.10
2018-04-14T06:35:14.543Z,39.00
2018-04-14T06:37:41.898Z,37.60
2018-04-14T06:40:09.411Z,37.50
2018-04-14T06:42:36.053Z,37.50
2018-04-14T06:45:02.802Z,37.50
2018-04-14T06:47:29.418Z,37.80
2018-04-14T06:49:56.103Z,34.40
2018-04-14T06:52:22.833Z,37.00
2018-04-14T06:54:49.809Z,37.50
2018-04-14T06:57:16.640Z,37.70
2018-04-14T06:59:43.634Z,37.90
2018-04-14T07:02:11.157Z,38.20
2018-04-14T07:04:37.815Z,38.20
2018-04-14T07:07:04.352Z,38.20
2018-04-14T07:09:31.182Z,38.80
2018-04-14T07:11:57.746Z,38.30
2018-04-14T07:14:24.295Z,38.40
2018-04-14T07:16:51.025Z,38.40
2018-04-14T07:19:17.638Z,38.80
2018-04-14T07:21:44.225Z,38.80
2018-04-14T07:24:10.966Z,39.00
2018-04-14T07:26:37.622Z,39.10
2018-04-14T07:29:04.430Z,38.80
2018-04-14T07:31:31.097Z,34.70
2018-04-14T07:33:57.651Z,37.50
2018-04-14T07:36:25.280Z,38.30
2018-04-14T07:38:51.929Z,38.90
2018-04-14T07:41:18.669Z,39.00
2018-04-14T07:43:45.274Z,39.20
2018-04-14T07:46:11.902Z,39.40
2018-04-14T07:48:39.224Z,39.00
2018-04-14T07:51:05.750Z,38.90
2018-04-14T07:53:32.405Z,39.30
2018-04-14T07:55:58.974Z,38.80
2018-04-14T07:58:25.734Z,39.20
2018-04-14T08:00:53.230Z,38.40
2018-04-14T08:03:20.007Z,38.40
2018-04-14T08:05:46.750Z,39.10
2018-04-14T08:08:13.410Z,38.80
2018-04-14T08:10:40.263Z,38.90
2018-04-14T08:13:06.874Z,39.10
2018-04-14T08:15:33.638Z,38.90
2018-04-14T08:18:00.306Z,39.00
2018-04-14T08:20:27.698Z,38.80
2018-04-14T08:22:54.421Z,38.70
2018-04-14T08:25:21.835Z,38.60
2018-04-14T08:27:48.347Z,38.80
2018-04-14T08:30:15.027Z,38.70
2018-04-14T08:32:41.777Z,38.70
2018-04-14T08:35:08.330Z,39.10
2018-04-14T08:37:35.019Z,38.70
2018-04-14T08:40:01.590Z,38.70
2018-04-14T08:42:28.206Z,38.80
2018-04-14T08:44:54.833Z,38.70
2018-04-14T08:47:22.276Z,39.10
2018-04-14T08:49:49.021Z,38.80
2018-04-14T08:52:15.653Z,38.90
2018-04-14T08:54:42.277Z,38.90
2018-04-14T08:57:08.840Z,38.90
2018-04-14T08:59:36.269Z,38.80
2018-04-14T09:02:02.920Z,38.80
2018-04-14T09:04:29.570Z,39.20
2018-04-14T09:06:56.124Z,38.70
2018-04-14T09:09:22.613Z,38.40
2018-04-14T09:11:49.395Z,38.60
2018-04-14T09:14:16.140Z,38.70
2018-04-14T09:16:42.884Z,38.60
2018-04-14T09:19:09.530Z,39.00
2018-04-14T09:21:36.471Z,39.00
2018-04-14T09:24:03.224Z,39.40
2018-04-14T09:26:29.878Z,38.70
2018-04-14T09:28:56.816Z,37.10
2018-04-14T09:31:23.569Z,37.20
2018-04-14T09:33:50.146Z,37.60
2018-04-14T09:36:17.568Z,38.10
2018-04-14T09:38:44.170Z,38.20
2018-04-14T09:41:10.869Z,38.40
2018-04-14T09:43:37.712Z,38.60
2018-04-14T09:46:04.354Z,38.70
2018-04-14T09:48:31.180Z,38.30
2018-04-14T09:50:57.943Z,38.20
2018-04-14T09:53:24.677Z,37.80
2018-04-14T09:55:51.256Z,38.00
2018-04-14T09:58:17.880Z,38.40
2018-04-14T10:00:50.856Z,40.30
2018-04-14T10:03:22.510Z,39.50
2018-04-14T10:05:49.468Z,40.70
2018-04-14T10:08:16.173Z,39.00
2018-04-14T10:10:42.788Z,38.60
2018-04-14T10:13:10.212Z,37.60
2018-04-14T10:15:36.962Z,37.50
2018-04-14T10:18:03.707Z,37.30
2018-04-14T10:20:30.385Z,36.80
2018-04-14T10:22:57.750Z,35.90
2018-04-14T10:25:25.271Z,35.50
2018-04-14T10:27:51.877Z,35.30
2018-04-14T10:30:18.875Z,35.40
2018-04-14T10:32:45.609Z,35.30
2018-04-14T10:35:12.278Z,34.70
2018-04-14T10:37:38.856Z,33.00
2018-04-14T10:40:06.249Z,33.60
2018-04-14T10:42:33.036Z,33.60
2018-04-14T10:44:59.719Z,31.90
2018-04-14T10:47:26.383Z,32.00
2018-04-14T10:49:53.140Z,32.50
2018-04-14T10:52:20.010Z,33.60
2018-04-14T10:54:46.698Z,34.00
2018-04-14T10:57:13.545Z,34.20
2018-04-14T10:59:40.219Z,33.90
2018-04-14T11:02:06.979Z,33.40
2018-04-14T11:04:33.610Z,31.90
2018-04-14T11:07:00.458Z,31.70
2018-04-14T11:09:27.201Z,32.30
2018-04-14T11:11:54.107Z,32.40
2018-04-14T11:14:21.515Z,33.30
2018-04-14T11:16:48.266Z,33.30
2018-04-14T11:19:15.126Z,33.50
2018-04-14T11:21:41.693Z,33.40
2018-04-14T11:24:09.128Z,33.40
2018-04-14T11:26:35.806Z,33.50
2018-04-14T11:29:03.154Z,34.10
2018-04-14T11:31:30.510Z,34.00
2018-04-14T11:33:57.217Z,34.00
2018-04-14T11:36:23.869Z,34.20
2018-04-14T11:38:50.453Z,34.70
2018-04-14T11:41:17.869Z,34.50
2018-04-14T11:43:44.517Z,35.20
2018-04-14T11:46:11.218Z,35.30
2018-04-14T11:48:37.902Z,35.50
2018-04-14T11:51:04.463Z,35.60
2018-04-14T11:53:31.186Z,35.90
2018-04-14T11:55:57.911Z,36.10
2018-04-14T11:58:24.417Z,36.00
2018-04-14T12:00:51.937Z,35.90
2018-04-14T12:03:18.789Z,36.50
2018-04-14T12:05:45.422Z,36.70
2018-04-14T12:08:12.071Z,36.60
2018-04-14T12:10:38.817Z,36.70
2018-04-14T12:13:05.457Z,37.00
2018-04-14T12:15:39.018Z,37.40
2018-04-14T12:18:05.890Z,37.50
2018-04-14T12:20:32.710Z,37.20
2018-04-14T12:23:07.102Z,37.70
2018-04-14T12:25:33.738Z,37.70
2018-04-14T12:28:01.185Z,37.20
2018-04-14T12:30:27.722Z,37.60
2018-04-14T12:32:54.366Z,37.70
2018-04-14T12:35:21.222Z,37.70
2018-04-14T12:37:47.893Z,38.30
2018-04-14T12:40:16.275Z,38.90
2018-04-14T12:42:42.984Z,38.30
2018-04-14T12:45:09.829Z,38.30
2018-04-14T12:47:36.490Z,38.40
2018-04-14T12:50:03.224Z,38.10
2018-04-14T12:52:29.893Z,38.20
2018-04-14T12:54:56.618Z,33.00
2018-04-14T12:57:23.165Z,32.50
2018-04-14T12:59:49.996Z,32.70
2018-04-14T13:02:16.606Z,33.20
2018-04-14T13:04:43.291Z,33.30
2018-04-14T13:07:09.935Z,33.10
2018-04-14T13:09:36.579Z,33.10
2018-04-14T13:12:03.220Z,33.50
2018-04-14T13:14:29.794Z,33.70
2018-04-14T13:16:56.509Z,34.20
2018-04-14T13:19:23.181Z,35.10
2018-04-14T13:21:49.836Z,34.60
2018-04-14T13:24:17.360Z,34.30
2018-04-14T13:26:44.410Z,34.40
2018-04-14T13:29:11.062Z,34.10
2018-04-14T13:31:37.626Z,34.30
2018-04-14T13:34:04.411Z,34.60
2018-04-14T13:36:31.093Z,35.00
2018-04-14T13:38:57.849Z,34.70
2018-04-14T13:41:24.402Z,34.80
2018-04-14T13:43:51.141Z,34.60
2018-04-14T13:46:18.140Z,35.40
2018-04-14T13:48:44.758Z,35.60
2018-04-14T13:51:12.105Z,36.20
2018-04-14T13:53:39.538Z,36.80
2018-04-14T13:56:06.124Z,36.40
2018-04-14T13:58:33.454Z,36.80
2018-04-14T14:01:00.103Z,36.60
2018-04-14T14:03:26.657Z,36.80
2018-04-14T14:05:54.195Z,37.50
2018-04-14T14:08:21.035Z,37.00
2018-04-14T14:10:48.021Z,36.90
2018-04-14T14:13:15.378Z,37.10
2018-04-14T14:15:42.107Z,37.10
2018-04-14T14:18:08.901Z,37.10
2018-04-14T14:20:35.679Z,37.50
2018-04-14T14:23:02.461Z,37.60
2018-04-14T14:25:29.277Z,37.30
2018-04-14T14:27:55.967Z,37.60
2018-04-14T14:30:23.395Z,38.00
2018-04-14T14:32:50.031Z,38.00
2018-04-14T14:35:16.589Z,38.20
2018-04-14T14:37:43.419Z,38.30
2018-04-14T14:40:10.055Z,38.50
2018-04-14T14:42:36.790Z,38.50
2018-04-14T14:45:03.347Z,38.70
2018-04-14T14:47:36.231Z,38.80
2018-04-14T14:50:09.115Z,38.70
2018-04-14T14:52:35.876Z,38.60
2018-04-14T14:55:02.602Z,38.70
2018-04-14T14:57:29.345Z,38.70
2018-04-14T14:59:55.999Z,38.80
2018-04-14T15:02:22.749Z,38.80
2018-04-14T15:04:49.383Z,39.40
2018-04-14T15:07:16.029Z,38.70
2018-04-14T15:09:42.784Z,33.70
2018-04-14T15:12:09.348Z,32.30
2018-04-14T15:14:36.009Z,33.80
2018-04-14T15:17:03.250Z,35.60
2018-04-14T15:19:29.986Z,36.10
2018-04-14T15:21:56.598Z,36.10
2018-04-14T15:24:23.267Z,35.70
2018-04-14T15:26:50.094Z,34.30
2018-04-14T15:29:16.761Z,34.30
2018-04-14T15:31:43.487Z,36.40
2018-04-14T15:34:10.233Z,36.90
2018-04-14T15:36:36.789Z,36.60
2018-04-14T15:39:03.556Z,37.30
2018-04-14T15:41:31.077Z,35.50
2018-04-14T15:43:57.924Z,35.40
2018-04-14T15:46:24.484Z,35.50
2018-04-14T15:48:51.113Z,35.30
2018-04-14T15:51:17.685Z,35.90
2018-04-14T15:53:44.270Z,37.00
2018-04-14T15:56:10.946Z,36.60
2018-04-14T15:58:38.197Z,37.30
2018-04-14T16:01:04.847Z,37.60
2018-04-14T16:03:31.499Z,37.60
2018-04-14T16:05:58.142Z,37.70
2018-04-14T16:08:24.774Z,38.10
2018-04-14T16:10:51.517Z,37.80
2018-04-14T16:13:18.114Z,34.80
2018-04-14T16:15:44.805Z,35.10
2018-04-14T16:18:11.650Z,34.40
2018-04-14T16:20:38.209Z,35.20
2018-04-14T16:23:04.936Z,36.50
2018-04-14T16:25:31.601Z,36.10
2018-04-14T16:27:58.468Z,36.80
2018-04-14T16:30:25.973Z,36.00
2018-04-14T16:32:52.638Z,36.40
2018-04-14T16:35:19.282Z,37.10
